sensor_id;sensor_type;location;lat;lon;timestamp;pressure;altitude;pressure_sealevel;temperature;humidity
141;BME280;65;48.778;9.160;2023-02-13T00:00:53;100481.84;;;1.69;100.00
141;BME280;65;48.778;9.160;2023-02-13T00:03:18;100477.44;;;1.64;100.00
141;BME280;65;48.778;9.160;2023-02-13T00:05:44;100479.13;;;1.57;100.00
141;BME280;65;48.778;9.160;2023-02-13T00:08:09;100479.09;;;1.55;100.00
141;BME280;65;48.778;9.160;2023-02-13T00:10:35;100480.94;;;1.64;100.00
141;BME280;65;48.778;9.160;2023-02-13T00:13:01;100474.84;;;1.65;100.00
141;BME280;65;48.778;9.160;2023-02-13T00:15:27;100475.69;;;1.63;100.00
141;BME280;65;48.778;9.160;2023-02-13T00:17:52;100479.13;;;1.57;100.00
141;BME280;65;48.778;9.160;2023-02-13T00:20:17;100476.56;;;1.62;100.00
141;BME280;65;48.778;9.160;2023-02-13T00:22:43;100479.13;;;1.58;100.00
141;BME280;65;48.778;9.160;2023-02-13T00:25:08;100470.41;;;1.55;100.00
141;BME280;65;48.778;9.160;2023-02-13T00:27:34;100479.09;;;1.52;100.00
141;BME280;65;48.778;9.160;2023-02-13T00:29:59;100474.66;;;1.45;100.00
141;BME280;65;48.778;9.160;2023-02-13T00:32:25;100472.91;;;1.43;100.00
141;BME280;65;48.778;9.160;2023-02-13T00:34:50;100478.97;;;1.42;100.00
141;BME280;65;48.778;9.160;2023-02-13T00:37:16;100472.03;;;1.42;100.00
141;BME280;65;48.778;9.160;2023-02-13T00:39:41;100478.97;;;1.42;100.00
141;BME280;65;48.778;9.160;2023-02-13T00:42:06;100473.72;;;1.39;100.00
141;BME280;65;48.778;9.160;2023-02-13T00:44:32;100477.19;;;1.38;100.00
141;BME280;65;48.778;9.160;2023-02-13T00:46:57;100471.09;;;1.34;100.00
141;BME280;65;48.778;9.160;2023-02-13T00:49:23;100481.50;;;1.34;100.00
141;BME280;65;48.778;9.160;2023-02-13T00:51:48;100484.19;;;1.42;100.00
141;BME280;65;48.778;9.160;2023-02-13T00:54:14;100482.38;;;1.36;100.00
141;BME280;65;48.778;9.160;2023-02-13T00:56:39;100474.56;;;1.35;100.00
141;BME280;65;48.778;9.160;2023-02-13T00:59:05;100477.16;;;1.33;100.00
141;BME280;65;48.778;9.160;2023-02-13T01:01:30;100479.75;;;1.33;100.00
141;BME280;65;48.778;9.160;2023-02-13T01:03:56;100475.44;;;1.37;100.00
141;BME280;65;48.778;9.160;2023-02-13T01:06:21;100475.41;;;1.34;100.00
141;BME280;65;48.778;9.160;2023-02-13T01:08:46;100468.44;;;1.30;100.00
141;BME280;65;48.778;9.160;2023-02-13T01:11:12;100466.66;;;1.27;100.00
141;BME280;65;48.778;9.160;2023-02-13T01:13:37;100468.41;;;1.28;100.00
141;BME280;65;48.778;9.160;2023-02-13T01:16:03;100465.81;;;1.28;100.00
141;BME280;65;48.778;9.160;2023-02-13T01:18:29;100472.72;;;1.26;100.00
141;BME280;65;48.778;9.160;2023-02-13T01:21:05;100469.25;;;1.24;100.00
141;BME280;65;48.778;9.160;2023-02-13T01:23:36;100470.97;;;1.23;100.00
141;BME280;65;48.778;9.160;2023-02-13T01:26:04;100464.88;;;1.21;100.00
141;BME280;65;48.778;9.160;2023-02-13T01:28:29;100466.59;;;1.21;100.00
141;BME280;65;48.778;9.160;2023-02-13T01:30:56;100473.53;;;1.19;100.00
141;BME280;65;48.778;9.160;2023-02-13T01:33:22;100458.78;;;1.21;100.00
141;BME280;65;48.778;9.160;2023-02-13T01:35:49;100457.00;;;1.17;100.00
141;BME280;65;48.778;9.160;2023-02-13T01:38:14;100456.94;;;1.14;100.00
141;BME280;65;48.778;9.160;2023-02-13T01:40:47;100460.38;;;1.11;100.00
141;BME280;65;48.778;9.160;2023-02-13T01:43:13;100458.59;;;1.06;100.00
141;BME280;65;48.778;9.160;2023-02-13T01:45:38;100458.56;;;1.03;100.00
141;BME280;65;48.778;9.160;2023-02-13T01:48:11;100460.25;;;1.01;100.00
141;BME280;65;48.778;9.160;2023-02-13T01:50:51;100461.13;;;1.01;100.00
141;BME280;65;48.778;9.160;2023-02-13T01:55:55;100462.88;;;1.02;100.00
141;BME280;65;48.778;9.160;2023-02-13T01:58:25;100457.66;;;0.99;100.00
141;BME280;65;48.778;9.160;2023-02-13T02:00:52;100461.16;;;1.03;100.00
141;BME280;65;48.778;9.160;2023-02-13T02:03:30;100459.41;;;1.02;100.00
141;BME280;65;48.778;9.160;2023-02-13T02:05:59;100459.41;;;1.02;100.00
141;BME280;65;48.778;9.160;2023-02-13T02:08:26;100459.41;;;1.02;100.00
141;BME280;65;48.778;9.160;2023-02-13T02:10:54;100447.22;;;0.99;100.00
141;BME280;65;48.778;9.160;2023-02-13T02:13:21;100453.25;;;0.95;100.00
141;BME280;65;48.778;9.160;2023-02-13T02:15:47;100459.34;;;0.97;100.00
141;BME280;65;48.778;9.160;2023-02-13T02:18:22;100457.59;;;0.96;100.00
141;BME280;65;48.778;9.160;2023-02-13T02:27:14;100458.38;;;0.87;100.00
141;BME280;65;48.778;9.160;2023-02-13T02:35:09;100455.75;;;0.86;100.00
141;BME280;65;48.778;9.160;2023-02-13T02:43:22;100460.00;;;0.79;100.00
141;BME280;65;48.778;9.160;2023-02-13T02:46:17;100458.22;;;0.75;100.00
141;BME280;65;48.778;9.160;2023-02-13T02:48:59;100456.50;;;0.77;100.00
141;BME280;65;48.778;9.160;2023-02-13T02:57:18;100444.38;;;0.78;100.00
141;BME280;65;48.778;9.160;2023-02-13T02:59:47;100456.47;;;0.74;100.00
141;BME280;65;48.778;9.160;2023-02-13T03:02:32;100452.09;;;0.72;100.00
141;BME280;65;48.778;9.160;2023-02-13T03:05:21;100456.41;;;0.68;100.00
141;BME280;65;48.778;9.160;2023-02-13T03:08:09;100465.97;;;0.69;100.00
141;BME280;65;48.778;9.160;2023-02-13T03:10:35;100458.16;;;0.69;100.00
141;BME280;65;48.778;9.160;2023-02-13T03:13:43;100458.16;;;0.69;100.00
141;BME280;65;48.778;9.160;2023-02-13T03:16:15;100465.97;;;0.71;100.00
141;BME280;65;48.778;9.160;2023-02-13T03:19:01;100469.38;;;0.65;100.00
141;BME280;65;48.778;9.160;2023-02-13T03:21:58;100465.00;;;0.62;100.00
141;BME280;65;48.778;9.160;2023-02-13T03:27:54;100458.13;;;0.66;100.00
141;BME280;65;48.778;9.160;2023-02-13T03:33:17;100467.59;;;0.61;100.00
141;BME280;65;48.778;9.160;2023-02-13T03:36:00;100471.91;;;0.59;100.00
141;BME280;65;48.778;9.160;2023-02-13T03:38:49;100471.81;;;0.56;100.00
141;BME280;65;48.778;9.160;2023-02-13T03:41:29;100473.50;;;0.52;100.00
141;BME280;65;48.778;9.160;2023-02-13T03:46:35;100469.13;;;0.48;100.00
141;BME280;65;48.778;9.160;2023-02-13T03:49:05;100472.56;;;0.46;100.00
141;BME280;65;48.778;9.160;2023-02-13T03:52:34;100472.56;;;0.46;100.00
141;BME280;65;48.778;9.160;2023-02-13T03:55:08;100477.81;;;0.50;100.00
141;BME280;65;48.778;9.160;2023-02-13T03:57:58;100469.97;;;0.47;100.00
141;BME280;65;48.778;9.160;2023-02-13T04:00:49;100477.75;;;0.46;100.00
141;BME280;65;48.778;9.160;2023-02-13T04:03:36;100477.66;;;0.40;100.00
141;BME280;65;48.778;9.160;2023-02-13T04:06:09;100488.97;;;0.42;100.00
141;BME280;65;48.778;9.160;2023-02-13T04:08:36;100489.78;;;0.39;100.00
141;BME280;65;48.778;9.160;2023-02-13T04:11:10;100488.97;;;0.42;100.00
141;BME280;65;48.778;9.160;2023-02-13T04:13:42;100492.41;;;0.41;100.00
141;BME280;65;48.778;9.160;2023-02-13T04:16:57;100497.66;;;0.44;100.00
141;BME280;65;48.778;9.160;2023-02-13T04:19:03;100499.47;;;0.48;100.00
141;BME280;65;48.778;9.160;2023-02-13T04:21:38;100505.56;;;0.50;100.00
141;BME280;65;48.778;9.160;2023-02-13T04:24:05;100503.91;;;0.56;100.00
141;BME280;65;48.778;9.160;2023-02-13T04:26:36;100501.31;;;0.56;100.00
141;BME280;65;48.778;9.160;2023-02-13T04:29:02;100498.78;;;0.59;100.00
141;BME280;65;48.778;9.160;2023-02-13T04:31:28;100503.03;;;0.54;100.00
141;BME280;65;48.778;9.160;2023-02-13T04:33:53;100503.84;;;0.52;100.00
141;BME280;65;48.778;9.160;2023-02-13T04:36:19;100504.72;;;0.52;100.00
141;BME280;65;48.778;9.160;2023-02-13T04:38:44;100496.84;;;0.46;100.00
141;BME280;65;48.778;9.160;2023-02-13T04:41:10;100502.84;;;0.42;100.00
141;BME280;65;48.778;9.160;2023-02-13T04:43:36;100501.06;;;0.40;100.00
141;BME280;65;48.778;9.160;2023-02-13T04:46:02;100499.31;;;0.37;100.00
141;BME280;65;48.778;9.160;2023-02-13T04:48:28;100502.72;;;0.35;100.00
141;BME280;65;48.778;9.160;2023-02-13T04:50:53;100502.72;;;0.33;100.00
141;BME280;65;48.778;9.160;2023-02-13T04:53:18;100506.13;;;0.30;100.00
141;BME280;65;48.778;9.160;2023-02-13T04:55:44;100498.34;;;0.32;100.00
141;BME280;65;48.778;9.160;2023-02-13T04:58:09;100511.44;;;0.37;100.00
141;BME280;65;48.778;9.160;2023-02-13T05:00:35;100516.56;;;0.32;100.00
141;BME280;65;48.778;9.160;2023-02-13T05:03:10;100514.78;;;0.29;100.00
141;BME280;65;48.778;9.160;2023-02-13T05:05:35;100517.34;;;0.26;100.00
141;BME280;65;48.778;9.160;2023-02-13T05:08:01;100515.56;;;0.24;100.00
141;BME280;65;48.778;9.160;2023-02-13T05:10:27;100517.34;;;0.26;100.00
141;BME280;65;48.778;9.160;2023-02-13T05:12:53;100513.09;;;0.31;100.00
141;BME280;65;48.778;9.160;2023-02-13T05:15:19;100520.06;;;0.34;100.00
141;BME280;65;48.778;9.160;2023-02-13T05:17:45;100514.97;;;0.42;100.00
141;BME280;65;48.778;9.160;2023-02-13T05:20:12;100508.97;;;0.47;100.00
141;BME280;65;48.778;9.160;2023-02-13T05:22:45;100515.03;;;0.45;100.00
141;BME280;65;48.778;9.160;2023-02-13T05:25:34;100513.19;;;0.38;100.00
141;BME280;65;48.778;9.160;2023-02-13T05:28:00;100508.78;;;0.34;100.00
141;BME280;65;48.778;9.160;2023-02-13T05:30:26;100515.72;;;0.35;100.00
141;BME280;65;48.778;9.160;2023-02-13T05:32:51;100516.69;;;0.40;100.00
141;BME280;65;48.778;9.160;2023-02-13T05:35:19;100520.19;;;0.42;100.00
141;BME280;65;48.778;9.160;2023-02-13T05:37:45;100517.47;;;0.36;100.00
141;BME280;65;48.778;9.160;2023-02-13T05:40:11;100515.72;;;0.33;100.00
141;BME280;65;48.778;9.160;2023-02-13T05:42:38;100517.38;;;0.28;100.00
141;BME280;65;48.778;9.160;2023-02-13T05:45:04;100510.44;;;0.28;100.00
141;BME280;65;48.778;9.160;2023-02-13T05:47:29;100516.47;;;0.26;100.00
141;BME280;65;48.778;9.160;2023-02-13T05:49:55;100514.66;;;0.20;100.00
141;BME280;65;48.778;9.160;2023-02-13T05:52:20;100509.38;;;0.16;100.00
141;BME280;65;48.778;9.160;2023-02-13T05:54:45;100511.09;;;0.14;100.00
141;BME280;65;48.778;9.160;2023-02-13T05:57:11;100510.16;;;0.10;100.00
141;BME280;65;48.778;9.160;2023-02-13T05:59:36;100514.50;;;0.11;100.00
141;BME280;65;48.778;9.160;2023-02-13T06:02:01;100506.72;;;0.11;100.00
141;BME280;65;48.778;9.160;2023-02-13T06:04:27;100506.72;;;0.13;100.00
141;BME280;65;48.778;9.160;2023-02-13T06:06:52;100507.69;;;0.18;100.00
141;BME280;65;48.778;9.160;2023-02-13T06:09:18;100507.69;;;0.18;100.00
141;BME280;65;48.778;9.160;2023-02-13T06:11:43;100504.16;;;0.14;100.00
141;BME280;65;48.778;9.160;2023-02-13T06:14:10;100506.72;;;0.13;100.00
141;BME280;65;48.778;9.160;2023-02-13T06:16:35;100503.22;;;0.09;100.00
141;BME280;65;48.778;9.160;2023-02-13T06:19:00;100511.84;;;0.07;100.00
141;BME280;65;48.778;9.160;2023-02-13T06:21:26;100504.03;;;0.07;100.00
141;BME280;65;48.778;9.160;2023-02-13T06:23:51;100507.47;;;0.04;100.00
141;BME280;65;48.778;9.160;2023-02-13T06:26:16;100511.84;;;0.07;100.00
141;BME280;65;48.778;9.160;2023-02-13T06:28:42;100505.72;;;0.03;100.00
141;BME280;65;48.778;9.160;2023-02-13T06:31:08;100505.75;;;0.06;100.00
141;BME280;65;48.778;9.160;2023-02-13T06:33:33;100518.88;;;0.14;100.00
141;BME280;65;48.778;9.160;2023-02-13T06:35:59;100505.94;;;0.17;100.00
141;BME280;65;48.778;9.160;2023-02-13T06:38:24;100513.72;;;0.17;100.00
141;BME280;65;48.778;9.160;2023-02-13T06:40:50;100519.81;;;0.17;100.00
141;BME280;65;48.778;9.160;2023-02-13T06:43:16;100512.88;;;0.18;100.00
141;BME280;65;48.778;9.160;2023-02-13T06:45:42;100509.44;;;0.20;100.00
141;BME280;65;48.778;9.160;2023-02-13T06:48:08;100521.66;;;0.26;100.00
141;BME280;65;48.778;9.160;2023-02-13T06:50:33;100518.19;;;0.25;100.00
141;BME280;65;48.778;9.160;2023-02-13T06:52:59;100521.72;;;0.29;100.00
141;BME280;65;48.778;9.160;2023-02-13T06:55:25;100520.03;;;0.32;100.00
141;BME280;65;48.778;9.160;2023-02-13T06:57:50;100517.47;;;0.34;100.00
141;BME280;65;48.778;9.160;2023-02-13T07:00:16;100523.53;;;0.35;100.00
141;BME280;65;48.778;9.160;2023-02-13T07:02:43;100520.19;;;0.42;100.00
141;BME280;65;48.778;9.160;2023-02-13T07:05:09;100522.78;;;0.43;100.00
141;BME280;65;48.778;9.160;2023-02-13T07:07:36;100523.75;;;0.48;100.00
141;BME280;65;48.778;9.160;2023-02-13T07:10:03;100522.03;;;0.50;100.00
141;BME280;65;48.778;9.160;2023-02-13T07:12:32;100527.38;;;0.58;100.00
141;BME280;65;48.778;9.160;2023-02-13T07:14:57;100527.44;;;0.61;100.00
141;BME280;65;48.778;9.160;2023-02-13T07:17:23;100532.72;;;0.67;100.00
141;BME280;65;48.778;9.160;2023-02-13T07:19:48;100525.84;;;0.72;100.00
141;BME280;65;48.778;9.160;2023-02-13T07:22:14;100531.16;;;0.80;100.00
141;BME280;65;48.778;9.160;2023-02-13T07:24:39;100539.13;;;0.92;100.00
141;BME280;65;48.778;9.160;2023-02-13T07:27:04;100533.22;;;1.05;100.00
141;BME280;65;48.778;9.160;2023-02-13T07:29:30;100535.03;;;1.11;100.00
141;BME280;65;48.778;9.160;2023-02-13T07:31:55;100537.75;;;1.18;100.00
141;BME280;65;48.778;9.160;2023-02-13T07:34:21;100536.88;;;1.18;100.00
141;BME280;65;48.778;9.160;2023-02-13T07:36:46;100537.81;;;1.24;100.00
141;BME280;65;48.778;9.160;2023-02-13T07:39:12;100542.16;;;1.24;100.00
141;BME280;65;48.778;9.160;2023-02-13T07:41:37;100534.41;;;1.30;100.00
141;BME280;65;48.778;9.160;2023-02-13T07:44:02;100543.16;;;1.34;100.00
141;BME280;65;48.778;9.160;2023-02-13T07:46:28;100544.94;;;1.38;100.00
141;BME280;65;48.778;9.160;2023-02-13T07:48:53;100544.09;;;1.42;100.00
141;BME280;65;48.778;9.160;2023-02-13T07:51:19;100545.94;;;1.50;100.00
141;BME280;65;48.778;9.160;2023-02-13T07:53:45;100543.41;;;1.56;100.00
141;BME280;65;48.778;9.160;2023-02-13T07:56:10;100538.25;;;1.64;100.00
141;BME280;65;48.778;9.160;2023-02-13T07:58:37;100537.41;;;1.67;100.00
141;BME280;65;48.778;9.160;2023-02-13T08:01:09;100537.47;;;1.71;100.00
141;BME280;65;48.778;9.160;2023-02-13T08:03:35;100539.28;;;1.77;100.00
141;BME280;65;48.778;9.160;2023-02-13T08:06:00;100533.25;;;1.81;100.00
141;BME280;65;48.778;9.160;2023-02-13T08:08:26;100527.25;;;1.91;100.00
141;BME280;65;48.778;9.160;2023-02-13T08:10:51;100535.13;;;1.97;100.00
141;BME280;65;48.778;9.160;2023-02-13T08:13:36;100527.34;;;2.00;100.00
141;BME280;65;48.778;9.160;2023-02-13T08:16:01;100530.97;;;2.20;100.00
141;BME280;65;48.778;9.160;2023-02-13T08:18:27;100535.41;;;2.31;100.00
141;BME280;65;48.778;9.160;2023-02-13T08:20:52;100538.13;;;2.43;100.00
141;BME280;65;48.778;9.160;2023-02-13T08:23:18;100531.34;;;2.66;100.00
141;BME280;65;48.778;9.160;2023-02-13T08:25:43;100537.50;;;2.79;100.00
141;BME280;65;48.778;9.160;2023-02-13T08:28:09;100535.91;;;2.99;100.00
141;BME280;65;48.778;9.160;2023-02-13T08:30:34;100534.22;;;3.13;100.00
141;BME280;65;48.778;9.160;2023-02-13T08:32:59;100536.03;;;3.28;100.00
141;BME280;65;48.778;9.160;2023-02-13T08:35:25;100532.56;;;3.41;100.00
141;BME280;65;48.778;9.160;2023-02-13T08:37:53;100523.88;;;3.44;100.00
141;BME280;65;48.778;9.160;2023-02-13T08:40:19;100530.84;;;3.46;100.00
141;BME280;65;48.778;9.160;2023-02-13T08:42:44;100527.34;;;3.40;100.00
141;BME280;65;48.778;9.160;2023-02-13T08:45:10;100524.69;;;3.31;100.00
141;BME280;65;48.778;9.160;2023-02-13T08:47:36;100516.91;;;3.41;100.00
141;BME280;65;48.778;9.160;2023-02-13T08:50:02;100520.44;;;3.53;100.00
141;BME280;65;48.778;9.160;2023-02-13T08:52:50;100516.09;;;3.55;100.00
141;BME280;65;48.778;9.160;2023-02-13T08:55:15;100517.84;;;3.56;100.00
141;BME280;65;48.778;9.160;2023-02-13T08:57:41;100512.63;;;3.65;100.00
141;BME280;65;48.778;9.160;2023-02-13T09:00:06;100517.00;;;3.70;100.00
141;BME280;65;48.778;9.160;2023-02-13T09:02:32;100516.13;;;3.76;100.00
141;BME280;65;48.778;9.160;2023-02-13T09:04:57;100515.28;;;3.88;100.00
141;BME280;65;48.778;9.160;2023-02-13T09:07:23;100512.66;;;3.89;100.00
141;BME280;65;48.778;9.160;2023-02-13T09:09:49;100517.94;;;4.09;100.00
141;BME280;65;48.778;9.160;2023-02-13T09:12:14;100520.53;;;4.18;100.00
141;BME280;65;48.778;9.160;2023-02-13T09:14:40;100515.28;;;4.44;99.34
141;BME280;65;48.778;9.160;2023-02-13T09:17:05;100518.75;;;4.61;98.55
141;BME280;65;48.778;9.160;2023-02-13T09:19:31;100517.00;;;4.60;98.98
141;BME280;65;48.778;9.160;2023-02-13T09:21:56;100510.91;;;4.52;98.06
141;BME280;65;48.778;9.160;2023-02-13T09:24:21;100525.75;;;4.68;99.49
141;BME280;65;48.778;9.160;2023-02-13T09:26:47;100519.63;;;4.79;96.51
141;BME280;65;48.778;9.160;2023-02-13T09:29:12;100520.47;;;4.82;95.83
141;BME280;65;48.778;9.160;2023-02-13T09:31:37;100520.47;;;4.87;95.86
141;BME280;65;48.778;9.160;2023-02-13T09:34:03;100516.97;;;4.88;95.72
141;BME280;65;48.778;9.160;2023-02-13T09:36:28;100520.47;;;4.87;95.40
141;BME280;65;48.778;9.160;2023-02-13T09:38:55;100519.53;;;5.03;94.85
141;BME280;65;48.778;9.160;2023-02-13T09:41:36;100530.91;;;5.03;98.74
141;BME280;65;48.778;9.160;2023-02-13T09:46:38;100519.50;;;5.24;93.34
141;BME280;65;48.778;9.160;2023-02-13T09:49:12;100520.41;;;5.05;92.90
141;BME280;65;48.778;9.160;2023-02-13T09:51:41;100522.97;;;5.17;94.56
141;BME280;65;48.778;9.160;2023-02-13T09:54:14;100520.34;;;5.28;93.80
141;BME280;65;48.778;9.160;2023-02-13T09:56:55;100519.47;;;5.18;91.98
141;BME280;65;48.778;9.160;2023-02-13T10:07:40;100522.94;;;5.35;92.23
141;BME280;65;48.778;9.160;2023-02-13T10:10:36;100519.44;;;5.32;92.83
141;BME280;65;48.778;9.160;2023-02-13T10:16:18;100517.44;;;5.77;89.28
141;BME280;65;48.778;9.160;2023-02-13T10:18:59;100527.88;;;5.93;88.24
141;BME280;65;48.778;9.160;2023-02-13T10:21:32;100525.13;;;6.10;86.22
141;BME280;65;48.778;9.160;2023-02-13T10:26:55;100509.28;;;6.22;85.07
141;BME280;65;48.778;9.160;2023-02-13T10:35:02;100507.56;;;6.20;87.06
141;BME280;65;48.778;9.160;2023-02-13T10:37:28;100510.94;;;6.32;86.05
141;BME280;65;48.778;9.160;2023-02-13T10:39:54;100509.94;;;6.50;84.12
141;BME280;65;48.778;9.160;2023-02-13T10:42:36;100509.09;;;6.47;84.60
141;BME280;65;48.778;9.160;2023-02-13T10:59:39;100484.91;;;7.00;80.59
141;BME280;65;48.778;9.160;2023-02-13T11:02:15;100486.41;;;7.19;78.94
141;BME280;65;48.778;9.160;2023-02-13T11:04:45;100477.66;;;7.17;78.81
141;BME280;65;48.778;9.160;2023-02-13T11:07:14;100477.47;;;7.33;77.58
141;BME280;65;48.778;9.160;2023-02-13T11:09:41;100472.25;;;7.28;78.76
141;BME280;65;48.778;9.160;2023-02-13T11:14:56;100472.19;;;7.33;78.85
141;BME280;65;48.778;9.160;2023-02-13T11:17:24;100467.84;;;7.32;78.21
141;BME280;65;48.778;9.160;2023-02-13T11:19:54;100470.81;;;7.04;81.44
141;BME280;65;48.778;9.160;2023-02-13T11:22:37;100476.50;;;7.38;78.77
141;BME280;65;48.778;9.160;2023-02-13T11:25:25;100471.06;;;7.50;76.31
141;BME280;65;48.778;9.160;2023-02-13T11:28:09;100466.34;;;7.75;74.79
141;BME280;65;48.778;9.160;2023-02-13T11:30:37;100461.97;;;7.74;74.75
141;BME280;65;48.778;9.160;2023-02-13T11:33:16;100470.56;;;7.85;73.95
141;BME280;65;48.778;9.160;2023-02-13T11:35:45;100472.25;;;7.91;73.78
141;BME280;65;48.778;9.160;2023-02-13T11:40:41;100467.97;;;7.84;73.71
141;BME280;65;48.778;9.160;2023-02-13T11:43:30;100467.78;;;7.94;73.22
141;BME280;65;48.778;9.160;2023-02-13T11:46:23;100461.56;;;8.00;71.98
141;BME280;65;48.778;9.160;2023-02-13T11:49:03;100468.34;;;8.16;71.23
141;BME280;65;48.778;9.160;2023-02-13T11:51:41;100457.00;;;8.11;71.80
141;BME280;65;48.778;9.160;2023-02-13T11:54:35;100458.66;;;8.17;70.38
141;BME280;65;48.778;9.160;2023-02-13T11:59:47;100449.72;;;8.27;70.25
141;BME280;65;48.778;9.160;2023-02-13T12:02:20;100451.41;;;8.31;69.69
141;BME280;65;48.778;9.160;2023-02-13T12:04:48;100460.84;;;8.44;69.53
141;BME280;65;48.778;9.160;2023-02-13T12:07:26;100447.56;;;8.50;67.76
141;BME280;65;48.778;9.160;2023-02-13T12:10:10;100459.06;;;8.46;69.20
141;BME280;65;48.778;9.160;2023-02-13T12:15:29;100454.16;;;8.74;66.23
141;BME280;65;48.778;9.160;2023-02-13T12:20:55;100451.09;;;8.49;68.35
141;BME280;65;48.778;9.160;2023-02-13T12:26:31;100453.06;;;8.38;68.74
141;BME280;65;48.778;9.160;2023-02-13T12:39:37;100436.78;;;8.63;68.35
141;BME280;65;48.778;9.160;2023-02-13T12:59:49;100424.16;;;8.80;68.33
141;BME280;65;48.778;9.160;2023-02-13T13:10:28;100410.06;;;9.23;65.87
141;BME280;65;48.778;9.160;2023-02-13T13:18:28;100407.88;;;9.01;65.99
141;BME280;65;48.778;9.160;2023-02-13T13:26:43;100409.94;;;9.29;65.03
141;BME280;65;48.778;9.160;2023-02-13T13:29:16;100397.00;;;9.16;65.21
141;BME280;65;48.778;9.160;2023-02-13T13:31:56;100405.50;;;8.89;65.98
141;BME280;65;48.778;9.160;2023-02-13T13:34:25;100395.28;;;9.15;65.49
141;BME280;65;48.778;9.160;2023-02-13T13:42:21;100393.72;;;9.45;63.41
141;BME280;65;48.778;9.160;2023-02-13T13:50:25;100401.41;;;9.56;64.59
141;BME280;65;48.778;9.160;2023-02-13T13:53:12;100393.47;;;9.56;63.42
141;BME280;65;48.778;9.160;2023-02-13T13:58:40;100389.94;;;9.57;64.23
141;BME280;65;48.778;9.160;2023-02-13T14:01:18;100386.84;;;9.75;64.85
141;BME280;65;48.778;9.160;2023-02-13T14:03:55;100387.22;;;9.60;63.42
141;BME280;65;48.778;9.160;2023-02-13T14:06:26;100391.38;;;9.70;63.04
141;BME280;65;48.778;9.160;2023-02-13T14:09:01;100392.03;;;9.78;63.26
141;BME280;65;48.778;9.160;2023-02-13T14:11:43;100396.03;;;9.96;63.08
141;BME280;65;48.778;9.160;2023-02-13T14:17:03;100394.28;;;9.95;63.01
141;BME280;65;48.778;9.160;2023-02-13T14:19:30;100390.63;;;10.01;62.36
141;BME280;65;48.778;9.160;2023-02-13T14:24:59;100388.03;;;10.95;59.26
141;BME280;65;48.778;9.160;2023-02-13T14:27:36;100386.88;;;12.42;55.49
141;BME280;65;48.778;9.160;2023-02-13T14:30:04;100389.28;;;14.29;49.94
141;BME280;65;48.778;9.160;2023-02-13T14:32:35;100382.50;;;16.30;45.15
141;BME280;65;48.778;9.160;2023-02-13T14:38:01;100384.34;;;17.29;42.87
141;BME280;65;48.778;9.160;2023-02-13T14:40:47;100384.91;;;16.69;43.23
141;BME280;65;48.778;9.160;2023-02-13T14:45:54;100385.75;;;17.36;40.45
141;BME280;65;48.778;9.160;2023-02-13T14:48:26;100383.34;;;16.83;41.20
141;BME280;65;48.778;9.160;2023-02-13T14:50:57;100379.44;;;17.84;38.94
141;BME280;65;48.778;9.160;2023-02-13T14:53:36;100384.19;;;18.55;37.92
141;BME280;65;48.778;9.160;2023-02-13T14:56:10;100382.97;;;15.30;43.62
141;BME280;65;48.778;9.160;2023-02-13T14:58:50;100377.22;;;16.46;41.09
141;BME280;65;48.778;9.160;2023-02-13T15:01:27;100384.03;;;16.00;42.79
141;BME280;65;48.778;9.160;2023-02-13T15:04:29;100367.66;;;15.90;42.35
141;BME280;65;48.778;9.160;2023-02-13T15:06:58;100363.38;;;16.22;41.34
141;BME280;65;48.778;9.160;2023-02-13T15:09:35;100367.84;;;16.22;41.34
141;BME280;65;48.778;9.160;2023-02-13T15:12:30;100367.63;;;15.35;43.47
141;BME280;65;48.778;9.160;2023-02-13T15:14:56;100375.09;;;16.53;41.51
141;BME280;65;48.778;9.160;2023-02-13T15:17:27;100357.66;;;14.64;44.13
141;BME280;65;48.778;9.160;2023-02-13T15:20:14;100366.00;;;13.28;47.90
141;BME280;65;48.778;9.160;2023-02-13T15:22:46;100366.28;;;14.08;46.82
141;BME280;65;48.778;9.160;2023-02-13T15:27:51;100357.31;;;14.71;45.29
141;BME280;65;48.778;9.160;2023-02-13T15:30:27;100354.78;;;14.07;46.27
141;BME280;65;48.778;9.160;2023-02-13T15:32:58;100351.34;;;13.18;50.16
141;BME280;65;48.778;9.160;2023-02-13T15:35:33;100353.78;;;12.77;49.69
141;BME280;65;48.778;9.160;2023-02-13T15:38:40;100357.16;;;13.27;49.10
141;BME280;65;48.778;9.160;2023-02-13T15:41:09;100358.59;;;12.66;50.61
141;BME280;65;48.778;9.160;2023-02-13T15:43:44;100364.97;;;12.85;49.82
141;BME280;65;48.778;9.160;2023-02-13T15:48:47;100371.34;;;10.93;53.97
141;BME280;65;48.778;9.160;2023-02-13T15:51:22;100364.25;;;10.33;57.22
141;BME280;65;48.778;9.160;2023-02-13T15:53:56;100371.00;;;9.75;60.01
141;BME280;65;48.778;9.160;2023-02-13T15:56:22;100361.63;;;9.27;60.86
141;BME280;65;48.778;9.160;2023-02-13T15:58:49;100365.69;;;9.01;62.83
141;BME280;65;48.778;9.160;2023-02-13T16:01:16;100361.03;;;8.72;64.16
141;BME280;65;48.778;9.160;2023-02-13T16:03:47;100367.59;;;8.51;64.97
141;BME280;65;48.778;9.160;2023-02-13T16:06:16;100370.91;;;8.15;68.16
141;BME280;65;48.778;9.160;2023-02-13T16:08:51;100380.72;;;8.05;69.39
141;BME280;65;48.778;9.160;2023-02-13T16:11:34;100381.78;;;7.95;70.12
141;BME280;65;48.778;9.160;2023-02-13T16:16:39;100385.47;;;7.85;70.55
141;BME280;65;48.778;9.160;2023-02-13T16:21:59;100382.50;;;7.52;72.94
141;BME280;65;48.778;9.160;2023-02-13T16:24:26;100374.75;;;7.42;73.18
141;BME280;65;48.778;9.160;2023-02-13T16:26:53;100380.22;;;7.28;74.35
141;BME280;65;48.778;9.160;2023-02-13T16:29:22;100375.09;;;7.17;75.28
141;BME280;65;48.778;9.160;2023-02-13T16:31:49;100367.19;;;7.19;75.15
141;BME280;65;48.778;9.160;2023-02-13T16:34:26;100373.44;;;7.12;75.65
141;BME280;65;48.778;9.160;2023-02-13T16:36:53;100370.91;;;7.04;76.45
141;BME280;65;48.778;9.160;2023-02-13T16:39:25;100371.09;;;6.89;76.84
141;BME280;65;48.778;9.160;2023-02-13T16:41:51;100370.44;;;6.72;78.03
141;BME280;65;48.778;9.160;2023-02-13T16:44:29;100375.03;;;6.56;78.70
141;BME280;65;48.778;9.160;2023-02-13T16:47:04;100380.41;;;6.45;80.08
141;BME280;65;48.778;9.160;2023-02-13T16:49:36;100375.34;;;6.27;81.72
141;BME280;65;48.778;9.160;2023-02-13T16:52:20;100381.50;;;6.23;81.42
141;BME280;65;48.778;9.160;2023-02-13T16:54:58;100385.91;;;6.21;81.95
141;BME280;65;48.778;9.160;2023-02-13T16:57:29;100386.84;;;6.14;81.96